createdAt,value
2019-04-21T00:00:24.502Z,10.30
2019-04-21T00:01:35.744Z,10.30
2019-04-21T00:02:39.720Z,10.30
2019-04-21T00:03:50.114Z,10.30
2019-04-21T00:05:12.931Z,10.30
2019-04-21T00:06:18.708Z,10.20
2019-04-21T00:07:23.445Z,10.20
2019-04-21T00:08:36.332Z,10.20
2019-04-21T00:09:41.035Z,10.20
2019-04-21T00:10:40.593Z,10.20
2019-04-21T00:11:53.970Z,10.20
2019-04-21T00:12:52.008Z,10.10
2019-04-21T00:13:56.412Z,10.10
2019-04-21T00:15:02.015Z,10.10
2019-04-21T00:16:00.358Z,10.10
2019-04-21T00:17:07.968Z,10.10
2019-04-21T00:18:30.135Z,10.00
2019-04-21T00:19:42.948Z,10.00
2019-04-21T00:20:53.060Z,10.00
2019-04-21T00:22:05.922Z,10.00
2019-04-21T00:23:19.756Z,10.00
2019-04-21T00:24:28.835Z,10.00
2019-04-21T00:25:32.149Z,9.90
2019-04-21T00:26:37.668Z,10.00
2019-04-21T00:27:47.440Z,10.00
2019-04-21T00:29:04.655Z,10.00
2019-04-21T00:30:04.601Z,10.00
2019-04-21T00:31:04.343Z,10.00
2019-04-21T00:32:10.064Z,10.00
2019-04-21T00:33:09.071Z,10.00
2019-04-21T00:34:09.447Z,9.90
2019-04-21T00:35:19.610Z,9.90
2019-04-21T00:36:28.034Z,9.90
2019-04-21T00:37:49.312Z,9.90
2019-04-21T00:39:06.642Z,9.80
2019-04-21T00:40:17.613Z,9.80
2019-04-21T00:41:09.231Z,9.80
2019-04-21T00:42:14.004Z,9.80
2019-04-21T00:43:19.684Z,9.80
2019-04-21T00:44:17.297Z,9.80
2019-04-21T00:45:28.896Z,9.80
2019-04-21T00:46:37.467Z,9.80
2019-04-21T00:47:46.265Z,9.80
2019-04-21T00:48:53.561Z,9.70
2019-04-21T00:50:01.982Z,9.80
2019-04-21T00:51:29.043Z,9.70
2019-04-21T00:52:47.586Z,9.70
2019-04-21T00:54:00.930Z,9.60
2019-04-21T00:55:07.718Z,9.70
2019-04-21T00:56:08.685Z,9.60
2019-04-21T00:57:18.070Z,9.60
2019-04-21T00:58:26.872Z,9.60
2019-04-21T00:59:25.940Z,9.60
2019-04-21T01:00:34.931Z,9.60
2019-04-21T01:01:39.177Z,9.60
2019-04-21T01:02:52.539Z,9.50
2019-04-21T01:03:53.102Z,9.50
2019-04-21T01:05:02.915Z,9.50
2019-04-21T01:06:08.214Z,9.40
2019-04-21T01:07:13.261Z,9.40
2019-04-21T01:08:17.677Z,9.40
2019-04-21T01:09:29.059Z,9.40
2019-04-21T01:10:28.720Z,9.40
2019-04-21T01:11:51.832Z,9.30
2019-04-21T01:12:56.010Z,9.30
2019-04-21T01:14:01.097Z,9.30
2019-04-21T01:15:11.057Z,9.20
2019-04-21T01:16:14.107Z,9.20
2019-04-21T01:17:20.231Z,9.20
2019-04-21T01:18:20.657Z,9.10
2019-04-21T01:19:26.085Z,9.10
2019-04-21T01:20:17.780Z,9.10
2019-04-21T01:21:22.836Z,9.10
2019-04-21T01:22:27.461Z,9.00
2019-04-21T01:23:32.194Z,9.00
2019-04-21T01:24:41.808Z,9.00
2019-04-21T01:25:57.159Z,8.90
2019-04-21T01:27:02.264Z,8.90
2019-04-21T01:28:16.653Z,8.90
2019-04-21T01:29:19.553Z,8.90
2019-04-21T01:30:28.552Z,8.90
2019-04-21T01:31:32.904Z,8.90
2019-04-21T01:32:47.055Z,8.90
2019-04-21T01:33:53.096Z,8.90
2019-04-21T01:35:00.740Z,8.90
2019-04-21T01:35:59.551Z,8.90
2019-04-21T01:37:05.687Z,8.90
2019-04-21T01:38:21.711Z,8.90
2019-04-21T01:39:28.836Z,8.90
2019-04-21T01:40:40.832Z,8.90
2019-04-21T01:41:43.079Z,8.90
2019-04-21T01:42:45.810Z,8.90
2019-04-21T01:43:53.545Z,8.90
2019-04-21T01:44:52.255Z,8.90
2019-04-21T01:45:59.543Z,8.90
2019-04-21T01:47:04.866Z,8.90
2019-04-21T01:48:11.323Z,8.90
2019-04-21T01:49:11.497Z,9.00
2019-04-21T01:50:27.201Z,9.00
2019-04-21T01:51:36.984Z,9.00
2019-04-21T01:52:51.439Z,9.00
2019-04-21T01:54:06.399Z,9.00
2019-04-21T01:55:24.915Z,9.00
2019-04-21T01:56:52.365Z,9.00
2019-04-21T01:58:08.154Z,9.00
2019-04-21T01:59:06.878Z,9.00
2019-04-21T02:00:30.171Z,9.00
2019-04-21T02:01:34.533Z,8.90
2019-04-21T02:02:49.250Z,8.90
2019-04-21T02:03:52.872Z,8.90
2019-04-21T02:05:05.765Z,8.80
2019-04-21T02:06:04.908Z,8.80
2019-04-21T02:07:13.114Z,8.80
2019-04-21T02:08:10.863Z,8.80
2019-04-21T02:09:22.949Z,8.80
2019-04-21T02:10:35.153Z,8.80
2019-04-21T02:11:35.405Z,8.80
2019-04-21T02:12:44.481Z,8.80
2019-04-21T02:13:59.950Z,8.70
2019-04-21T02:15:06.332Z,8.70
2019-04-21T02:16:07.891Z,8.70
2019-04-21T02:17:13.219Z,8.70
2019-04-21T02:18:18.824Z,8.70
2019-04-21T02:19:19.819Z,8.60
2019-04-21T02:20:18.286Z,8.60
2019-04-21T02:21:30.467Z,8.60
2019-04-21T02:22:57.468Z,8.60
2019-04-21T02:23:54.052Z,8.60
2019-04-21T02:26:03.845Z,8.60
2019-04-21T02:27:06.819Z,8.60
2019-04-21T02:28:21.776Z,8.60
2019-04-21T02:29:20.683Z,8.60
2019-04-21T02:30:45.460Z,8.60
2019-04-21T02:33:03.751Z,8.60
2019-04-21T02:36:22.852Z,8.60
2019-04-21T02:39:30.352Z,8.60
2019-04-21T02:40:43.243Z,8.50
2019-04-21T02:41:48.950Z,8.50
2019-04-21T02:43:03.237Z,8.50
2019-04-21T02:44:00.700Z,8.50
2019-04-21T02:45:09.265Z,8.60
2019-04-21T02:46:12.581Z,8.60
2019-04-21T02:47:16.640Z,8.50
2019-04-21T02:51:42.611Z,8.50
2019-04-21T02:52:55.434Z,8.50
2019-04-21T02:54:32.323Z,8.50
2019-04-21T02:55:04.103Z,8.50
2019-04-21T02:56:08.825Z,8.50
2019-04-21T02:58:34.685Z,8.40
2019-04-21T03:01:23.725Z,8.40
2019-04-21T03:02:36.658Z,8.40
2019-04-21T03:05:15.728Z,8.40
2019-04-21T03:06:15.406Z,8.40
2019-04-21T03:08:44.288Z,8.40
2019-04-21T03:10:53.408Z,8.40
2019-04-21T03:12:05.363Z,8.40
2019-04-21T03:13:07.687Z,8.40
2019-04-21T03:14:16.784Z,8.40
2019-04-21T03:18:39.920Z,8.30
2019-04-21T03:19:51.905Z,8.30
2019-04-21T03:20:51.030Z,8.30
2019-04-21T03:21:57.303Z,8.30
2019-04-21T03:23:07.854Z,8.30
2019-04-21T03:24:15.276Z,8.30
2019-04-21T03:25:25.389Z,8.30
2019-04-21T03:27:50.174Z,8.20
2019-04-21T03:28:37.765Z,8.20
2019-04-21T03:29:44.747Z,8.20
2019-04-21T03:32:14.333Z,8.20
2019-04-21T03:33:54.463Z,8.20
2019-04-21T03:35:53.459Z,8.10
2019-04-21T03:36:39.829Z,8.10
2019-04-21T03:38:43.013Z,8.10
2019-04-21T03:39:47.938Z,8.10
2019-04-21T03:40:44.284Z,8.00
2019-04-21T03:42:04.471Z,8.00
2019-04-21T03:42:58.601Z,8.00
2019-04-21T03:44:08.052Z,8.00
2019-04-21T03:45:30.942Z,7.90
2019-04-21T03:46:24.798Z,7.90
2019-04-21T03:47:30.578Z,7.90
2019-04-21T03:48:36.609Z,7.90
2019-04-21T03:50:51.004Z,7.90
2019-04-21T03:51:56.905Z,7.80
2019-04-21T03:54:09.183Z,7.80
2019-04-21T03:57:57.285Z,7.80
2019-04-21T03:58:56.319Z,7.80
2019-04-21T04:00:08.972Z,7.80
2019-04-21T04:01:37.079Z,7.80
2019-04-21T04:03:10.784Z,7.80
2019-04-21T04:04:31.852Z,7.80
2019-04-21T04:05:51.617Z,7.70
2019-04-21T04:06:56.590Z,7.70
2019-04-21T04:08:31.460Z,7.70
2019-04-21T04:10:22.852Z,7.70
2019-04-21T04:12:34.494Z,7.70
2019-04-21T04:13:56.378Z,7.70
2019-04-21T04:15:07.165Z,7.70
2019-04-21T04:15:56.120Z,7.70
2019-04-21T04:18:20.976Z,7.70
2019-04-21T04:19:38.013Z,7.70
2019-04-21T04:20:28.509Z,7.80
2019-04-21T04:21:47.888Z,7.70
2019-04-21T04:23:45.327Z,7.70
2019-04-21T04:24:50.157Z,7.70
2019-04-21T04:26:02.428Z,7.70
2019-04-21T04:28:29.803Z,7.80
2019-04-21T04:29:35.234Z,7.80
2019-04-21T04:30:41.995Z,7.80
2019-04-21T04:31:42.811Z,7.80
2019-04-21T04:32:48.247Z,7.80
2019-04-21T04:34:04.190Z,7.80
2019-04-21T04:35:12.599Z,7.80
2019-04-21T04:38:33.788Z,7.80
2019-04-21T04:40:57.539Z,7.90
2019-04-21T04:42:14.619Z,7.90
2019-04-21T04:43:23.246Z,7.90
2019-04-21T04:44:42.323Z,7.90
2019-04-21T04:45:38.490Z,7.90
2019-04-21T04:46:45.595Z,7.90
2019-04-21T04:48:55.020Z,7.90
2019-04-21T04:49:55.030Z,8.00
2019-04-21T04:51:04.002Z,8.00
2019-04-21T04:53:20.100Z,8.10
2019-04-21T04:54:39.192Z,8.10
2019-04-21T04:55:33.809Z,8.10
2019-04-21T04:56:45.233Z,8.20
2019-04-21T04:57:55.327Z,8.20
2019-04-21T04:59:24.564Z,8.20
2019-04-21T05:00:14.532Z,8.20
2019-04-21T05:01:19.530Z,8.20
2019-04-21T05:02:19.815Z,8.20
2019-04-21T05:03:26.308Z,8.30
2019-04-21T05:04:23.762Z,8.30
2019-04-21T05:05:30.038Z,8.40
2019-04-21T05:09:07.799Z,8.40
2019-04-21T05:10:05.897Z,8.40
2019-04-21T05:11:07.690Z,8.40
2019-04-21T05:12:11.953Z,8.40
2019-04-21T05:13:24.181Z,8.40
2019-04-21T05:15:28.589Z,8.50
2019-04-21T05:18:58.403Z,8.60
2019-04-21T05:21:16.059Z,8.70
2019-04-21T05:22:14.155Z,8.80
2019-04-21T05:24:16.574Z,8.80
2019-04-21T05:25:20.853Z,8.90
2019-04-21T05:26:23.390Z,8.90
2019-04-21T05:27:40.950Z,9.00
2019-04-21T05:28:44.564Z,9.00
2019-04-21T05:29:58.600Z,9.10
2019-04-21T05:31:24.991Z,9.10
2019-04-21T05:32:45.247Z,9.10
2019-04-21T05:34:00.388Z,9.10
2019-04-21T05:35:10.854Z,9.20
2019-04-21T05:36:39.497Z,9.20
2019-04-21T05:37:50.378Z,9.30
2019-04-21T05:39:21.616Z,9.30
2019-04-21T05:40:31.832Z,9.30
2019-04-21T05:41:36.207Z,9.40
2019-04-21T05:42:52.925Z,9.50
2019-04-21T05:43:56.492Z,9.50
2019-04-21T05:45:12.724Z,9.50
2019-04-21T05:46:13.959Z,9.50
2019-04-21T05:47:31.128Z,9.60
2019-04-21T05:48:52.608Z,9.60
2019-04-21T05:50:01.215Z,9.60
2019-04-21T05:51:03.760Z,9.60
2019-04-21T05:52:09.457Z,9.70
2019-04-21T05:53:29.974Z,9.70
2019-04-21T05:54:39.471Z,9.80
2019-04-21T05:55:45.993Z,9.80
2019-04-21T05:56:46.065Z,9.80
2019-04-21T05:57:55.857Z,9.80
2019-04-21T05:58:58.210Z,9.90
2019-04-21T06:00:08.863Z,9.90
2019-04-21T06:01:32.847Z,10.00
2019-04-21T06:03:30.619Z,10.10
2019-04-21T06:04:49.087Z,10.20
2019-04-21T06:05:51.130Z,10.20
2019-04-21T06:07:00.356Z,10.30
2019-04-21T06:08:00.482Z,10.40
2019-04-21T06:09:07.994Z,10.40
2019-04-21T06:10:13.877Z,10.50
2019-04-21T06:11:28.790Z,10.60
2019-04-21T06:12:29.774Z,10.70
2019-04-21T06:13:45.335Z,10.80
2019-04-21T06:14:43.970Z,10.90
2019-04-21T06:16:03.479Z,11.10
2019-04-21T06:16:58.683Z,11.30
2019-04-21T06:18:04.992Z,11.60
2019-04-21T06:19:04.723Z,12.00
2019-04-21T06:20:19.180Z,12.40
2019-04-21T06:21:21.928Z,12.70
2019-04-21T06:22:23.965Z,13.00
2019-04-21T06:23:36.794Z,13.30
2019-04-21T06:24:54.751Z,13.60
2019-04-21T06:26:06.253Z,13.80
2019-04-21T06:28:07.925Z,14.30
2019-04-21T06:29:11.106Z,14.70
2019-04-21T06:30:09.948Z,15.10
2019-04-21T06:31:43.244Z,15.30
2019-04-21T06:33:41.232Z,15.50
2019-04-21T06:35:04.370Z,15.90
2019-04-21T06:36:24.172Z,16.30
2019-04-21T06:37:40.415Z,16.30
2019-04-21T06:40:15.669Z,16.80
2019-04-21T06:41:13.509Z,17.00
2019-04-21T06:42:16.498Z,17.20
2019-04-21T06:43:33.244Z,17.20
2019-04-21T06:44:32.011Z,17.20
2019-04-21T06:45:39.964Z,16.90
2019-04-21T06:46:42.430Z,16.90
2019-04-21T06:47:57.568Z,16.80
2019-04-21T06:49:00.074Z,16.80
2019-04-21T06:50:01.652Z,16.90
2019-04-21T06:51:20.387Z,17.30
2019-04-21T06:53:29.259Z,17.50
2019-04-21T06:54:34.200Z,17.50
2019-04-21T06:55:32.091Z,17.70
2019-04-21T06:57:56.009Z,17.90
2019-04-21T06:59:02.084Z,17.90
2019-04-21T07:00:06.420Z,18.10
2019-04-21T07:01:15.556Z,18.40
2019-04-21T07:03:29.431Z,19.10
2019-04-21T07:04:51.837Z,19.20
2019-04-21T07:05:41.255Z,19.20
2019-04-21T07:08:09.239Z,19.40
2019-04-21T07:09:10.228Z,19.40
2019-04-21T07:11:12.431Z,20.00
2019-04-21T07:12:20.229Z,20.00
2019-04-21T07:13:25.352Z,20.20
2019-04-21T07:14:35.624Z,20.30
2019-04-21T07:15:43.881Z,20.60
2019-04-21T07:16:50.884Z,20.80
2019-04-21T07:17:54.294Z,20.90
2019-04-21T07:19:09.957Z,20.70
2019-04-21T07:21:14.324Z,20.90
2019-04-21T07:22:24.452Z,20.80
2019-04-21T07:23:31.630Z,21.20
2019-04-21T07:24:38.433Z,21.50
2019-04-21T07:25:38.516Z,21.60
2019-04-21T07:26:51.347Z,21.50
2019-04-21T07:27:52.023Z,21.20
2019-04-21T07:30:06.692Z,22.00
2019-04-21T07:31:21.849Z,22.10
2019-04-21T07:32:22.108Z,22.20
2019-04-21T07:33:52.319Z,22.10
2019-04-21T07:34:36.301Z,22.00
2019-04-21T07:35:37.406Z,21.90
2019-04-21T07:36:50.874Z,21.90
2019-04-21T07:37:53.357Z,22.20
2019-04-21T07:38:57.270Z,22.30
2019-04-21T07:40:05.571Z,22.40
2019-04-21T07:41:02.172Z,22.70
2019-04-21T07:42:20.821Z,23.00
2019-04-21T07:43:20.505Z,22.90
2019-04-21T07:44:29.077Z,23.00
2019-04-21T07:45:38.128Z,22.90
2019-04-21T07:46:38.454Z,23.00
2019-04-21T07:47:55.507Z,23.40
2019-04-21T07:49:12.779Z,23.60
2019-04-21T07:50:29.915Z,23.60
2019-04-21T07:51:56.560Z,23.50
2019-04-21T07:53:14.792Z,23.30
2019-04-21T07:54:26.964Z,23.70
2019-04-21T07:56:19.107Z,23.50
2019-04-21T07:57:36.905Z,23.40
2019-04-21T07:58:45.526Z,23.40
2019-04-21T08:00:06.896Z,23.50
2019-04-21T08:01:09.536Z,23.80
2019-04-21T08:02:01.299Z,23.60
2019-04-21T08:03:16.126Z,23.50
2019-04-21T08:04:38.017Z,24.00
2019-04-21T08:05:27.946Z,24.30
2019-04-21T08:06:36.617Z,24.70
2019-04-21T08:07:47.791Z,24.60
2019-04-21T08:08:43.538Z,24.30
2019-04-21T08:09:47.228Z,24.30
2019-04-21T08:10:50.664Z,24.50
2019-04-21T08:11:57.427Z,24.90
2019-04-21T08:13:09.796Z,24.80
2019-04-21T08:14:18.103Z,24.90
2019-04-21T08:16:30.640Z,24.50
2019-04-21T08:17:36.608Z,24.70
2019-04-21T08:19:43.309Z,24.40
2019-04-21T08:20:54.934Z,24.80
2019-04-21T08:22:05.458Z,24.30
2019-04-21T08:23:21.099Z,23.50
2019-04-21T08:24:19.844Z,23.50
2019-04-21T08:25:42.068Z,23.00
2019-04-21T08:26:44.610Z,22.70
2019-04-21T08:27:49.535Z,22.50
2019-04-21T08:28:53.707Z,22.50
2019-04-21T08:29:58.327Z,22.80
2019-04-21T08:31:01.286Z,23.00
2019-04-21T08:32:19.954Z,23.20
2019-04-21T08:33:24.700Z,23.10
2019-04-21T08:34:30.814Z,23.50
2019-04-21T08:36:34.018Z,24.10
2019-04-21T08:37:46.125Z,24.10
2019-04-21T08:38:48.465Z,24.30
2019-04-21T08:40:05.155Z,24.40
2019-04-21T08:41:03.637Z,24.40
2019-04-21T08:42:06.810Z,24.40
2019-04-21T08:43:21.666Z,24.30
2019-04-21T08:44:27.282Z,24.10
2019-04-21T08:45:28.131Z,23.90
2019-04-21T08:46:44.886Z,23.70
2019-04-21T08:47:39.588Z,23.50
2019-04-21T08:48:52.612Z,23.30
2019-04-21T08:49:55.381Z,23.30
2019-04-21T08:51:18.861Z,23.10
2019-04-21T08:52:14.763Z,23.00
2019-04-21T08:53:15.611Z,22.90
2019-04-21T08:54:21.492Z,22.80
2019-04-21T08:55:48.994Z,22.70
2019-04-21T08:57:11.638Z,22.40
2019-04-21T09:00:12.508Z,22.00
2019-04-21T09:01:37.752Z,21.50
2019-04-21T09:02:56.078Z,21.40
2019-04-21T09:03:59.824Z,21.30
2019-04-21T09:05:14.180Z,20.80
2019-04-21T09:06:27.438Z,20.40
2019-04-21T09:07:25.662Z,20.30
2019-04-21T09:08:34.582Z,20.30
2019-04-21T09:09:41.391Z,20.30
2019-04-21T09:10:42.239Z,20.20
2019-04-21T09:11:54.237Z,20.20
2019-04-21T09:12:57.269Z,20.10
2019-04-21T09:14:01.057Z,20.00
2019-04-21T09:15:08.303Z,19.90
2019-04-21T09:16:16.894Z,19.70
2019-04-21T09:17:15.298Z,19.70
2019-04-21T09:18:22.923Z,19.70
2019-04-21T09:19:44.391Z,19.80
2019-04-21T09:20:47.372Z,19.70
2019-04-21T09:21:51.510Z,19.60
2019-04-21T09:22:54.455Z,19.70
2019-04-21T09:24:09.358Z,19.80
2019-04-21T09:25:01.698Z,19.70
2019-04-21T09:26:18.781Z,19.90
2019-04-21T09:27:20.396Z,19.90
2019-04-21T09:28:24.123Z,20.00
2019-04-21T09:29:27.667Z,19.90
2019-04-21T09:30:24.103Z,19.70
2019-04-21T09:31:33.851Z,19.60
2019-04-21T09:32:38.542Z,19.60
2019-04-21T09:33:48.994Z,19.50
2019-04-21T09:34:52.421Z,19.50
2019-04-21T09:36:01.032Z,19.60
2019-04-21T09:37:16.484Z,19.60
2019-04-21T09:38:19.308Z,19.50
2019-04-21T09:39:20.393Z,19.40
2019-04-21T09:40:31.564Z,19.30
2019-04-21T09:41:34.242Z,19.20
2019-04-21T09:42:46.804Z,19.20
2019-04-21T09:43:47.378Z,19.20
2019-04-21T09:44:53.834Z,19.20
2019-04-21T09:45:56.705Z,19.30
2019-04-21T09:47:05.124Z,19.50
2019-04-21T09:48:14.057Z,19.60
2019-04-21T09:49:20.612Z,19.60
2019-04-21T09:50:22.215Z,19.50
2019-04-21T09:51:28.080Z,19.50
2019-04-21T09:52:44.323Z,19.50
2019-04-21T09:53:42.262Z,19.40
2019-04-21T09:54:55.238Z,19.30
2019-04-21T09:55:58.210Z,19.30
2019-04-21T09:57:03.290Z,19.20
2019-04-21T09:58:13.550Z,19.10
2019-04-21T09:59:20.791Z,19.10
2019-04-21T10:00:24.487Z,19.00
2019-04-21T10:01:37.157Z,19.10
2019-04-21T10:02:40.238Z,19.20
2019-04-21T10:03:43.430Z,19.30
2019-04-21T10:04:46.107Z,19.30
2019-04-21T10:05:52.047Z,19.20
2019-04-21T10:06:56.980Z,19.20
2019-04-21T10:08:01.734Z,19.30
2019-04-21T10:09:13.887Z,19.20
2019-04-21T10:10:15.530Z,19.30
2019-04-21T10:11:21.086Z,19.20
2019-04-21T10:12:26.611Z,19.20
2019-04-21T10:13:31.856Z,19.10
2019-04-21T10:14:36.702Z,18.90
2019-04-21T10:15:41.973Z,18.90
2019-04-21T10:17:12.936Z,18.90
2019-04-21T10:18:19.690Z,19.00
2019-04-21T10:19:25.524Z,19.00
2019-04-21T10:20:32.796Z,19.00
2019-04-21T10:21:38.079Z,18.90
2019-04-21T10:22:43.040Z,18.90
2019-04-21T10:23:47.970Z,18.90
2019-04-21T10:24:52.686Z,18.80
2019-04-21T10:25:57.271Z,18.80
2019-04-21T10:27:04.140Z,18.90
2019-04-21T10:28:08.138Z,18.90
2019-04-21T10:29:19.776Z,19.00
2019-04-21T10:30:20.384Z,19.00
2019-04-21T10:31:25.181Z,19.10
2019-04-21T10:32:30.185Z,19.10
2019-04-21T10:33:36.881Z,19.10
2019-04-21T10:34:41.616Z,19.10
2019-04-21T10:35:46.781Z,19.00
2019-04-21T10:36:53.206Z,19.00
2019-04-21T10:38:06.769Z,19.00
2019-04-21T10:39:06.033Z,19.00
2019-04-21T10:40:13.626Z,19.00
2019-04-21T10:41:19.278Z,19.00
2019-04-21T10:42:24.035Z,19.10
2019-04-21T10:43:29.230Z,19.10
2019-04-21T10:44:35.012Z,19.10
2019-04-21T10:45:41.055Z,19.10
2019-04-21T10:46:52.554Z,19.10
2019-04-21T10:47:58.828Z,19.10
2019-04-21T10:49:04.408Z,19.20
2019-04-21T10:50:10.943Z,19.20
2019-04-21T10:51:17.002Z,19.20
2019-04-21T10:52:47.464Z,19.20
2019-04-21T10:53:54.241Z,19.20
2019-04-21T10:55:19.139Z,19.20
2019-04-21T10:56:16.926Z,19.20
2019-04-21T10:57:16.810Z,19.20
2019-04-21T10:58:24.679Z,19.20
2019-04-21T10:59:29.452Z,19.20
2019-04-21T11:00:34.433Z,19.10
2019-04-21T11:01:41.044Z,19.10
2019-04-21T11:02:48.984Z,19.10
2019-04-21T11:04:20.248Z,19.10
2019-04-21T11:05:20.741Z,19.10
2019-04-21T11:06:26.530Z,19.10
2019-04-21T11:08:05.157Z,19.20
2019-04-21T11:08:59.960Z,19.20
2019-04-21T11:10:07.957Z,19.30
2019-04-21T11:11:14.148Z,19.30
2019-04-21T11:12:19.833Z,19.30
2019-04-21T11:13:26.247Z,19.30
2019-04-21T11:14:31.936Z,19.30
2019-04-21T11:15:37.050Z,19.30
2019-04-21T11:16:43.354Z,19.30
2019-04-21T11:17:48.842Z,19.30
2019-04-21T11:18:55.820Z,19.30
2019-04-21T11:20:01.114Z,19.40
2019-04-21T11:21:07.010Z,19.40
2019-04-21T11:22:12.675Z,19.40
2019-04-21T11:23:20.549Z,19.40
2019-04-21T11:24:25.022Z,19.40
2019-04-21T11:25:30.474Z,19.40
2019-04-21T11:26:35.928Z,19.50
2019-04-21T11:27:40.928Z,19.40
2019-04-21T11:28:47.255Z,19.30
2019-04-21T11:29:51.987Z,19.30
2019-04-21T11:30:57.167Z,19.30
2019-04-21T11:32:03.178Z,19.30
2019-04-21T11:33:09.056Z,19.30
2019-04-21T11:34:13.805Z,19.40
2019-04-21T11:35:19.271Z,19.40
2019-04-21T11:36:24.990Z,19.40
2019-04-21T11:37:32.657Z,19.50
2019-04-21T11:39:02.345Z,19.40
2019-04-21T11:40:00.103Z,19.40
2019-04-21T11:41:00.905Z,19.40
2019-04-21T11:42:15.468Z,19.50
2019-04-21T11:43:20.261Z,19.40
2019-04-21T11:44:27.030Z,19.40
2019-04-21T11:45:34.704Z,19.40
2019-04-21T11:46:40.378Z,19.40
2019-04-21T11:48:03.981Z,19.40
2019-04-21T11:49:09.158Z,19.50
2019-04-21T11:50:15.080Z,19.50
2019-04-21T11:51:19.781Z,19.60
2019-04-21T11:53:48.780Z,19.50
2019-04-21T11:54:53.485Z,19.50
2019-04-21T11:55:58.741Z,19.50
2019-04-21T11:57:12.390Z,19.50
2019-04-21T11:58:10.058Z,19.60
2019-04-21T11:59:15.567Z,19.60
2019-04-21T12:00:21.523Z,19.60
2019-04-21T12:01:27.535Z,19.60
2019-04-21T12:02:33.218Z,19.70
2019-04-21T12:03:37.943Z,19.70
2019-04-21T12:04:43.449Z,19.80
2019-04-21T12:05:48.446Z,19.80
2019-04-21T12:06:54.566Z,19.70
2019-04-21T12:08:00.490Z,19.80
2019-04-21T12:09:08.156Z,19.80
2019-04-21T12:10:15.536Z,19.80
2019-04-21T12:11:21.283Z,19.80
2019-04-21T12:12:25.853Z,19.80
2019-04-21T12:13:30.478Z,19.70
2019-04-21T12:14:36.398Z,19.70
2019-04-21T12:15:43.037Z,19.70
2019-04-21T12:16:48.750Z,19.80
2019-04-21T12:17:54.617Z,19.80
2019-04-21T12:18:59.249Z,19.80
2019-04-21T12:20:04.300Z,19.80
2019-04-21T12:21:09.395Z,19.80
2019-04-21T12:22:21.265Z,19.80
2019-04-21T12:23:20.591Z,19.80
2019-04-21T12:24:25.441Z,19.80
2019-04-21T12:25:34.632Z,19.80
2019-04-21T12:26:40.138Z,19.80
2019-04-21T12:27:45.694Z,19.90
2019-04-21T12:28:50.357Z,19.90
2019-04-21T12:29:55.509Z,19.90
2019-04-21T12:31:00.507Z,19.90
2019-04-21T12:32:17.885Z,20.00
2019-04-21T12:33:40.463Z,20.00
2019-04-21T12:34:47.350Z,19.90
2019-04-21T12:35:51.612Z,19.90
2019-04-21T12:36:57.025Z,19.90
2019-04-21T12:38:02.759Z,19.90
2019-04-21T12:39:12.854Z,19.90
2019-04-21T12:40:18.748Z,20.00
2019-04-21T12:41:24.629Z,19.90
2019-04-21T12:42:30.294Z,19.90
2019-04-21T12:43:35.027Z,19.90
2019-04-21T12:44:39.699Z,19.90
2019-04-21T12:45:44.372Z,19.90
2019-04-21T12:46:49.829Z,19.90
2019-04-21T12:47:55.762Z,19.90
2019-04-21T12:49:00.368Z,19.90
2019-04-21T12:50:06.765Z,19.90
2019-04-21T12:51:12.270Z,19.90
2019-04-21T12:52:17.699Z,19.90
2019-04-21T12:53:25.546Z,20.00
2019-04-21T12:54:30.395Z,20.00
2019-04-21T12:55:37.469Z,20.00
2019-04-21T12:56:43.249Z,20.00
2019-04-21T12:57:48.138Z,20.00
2019-04-21T12:58:53.688Z,20.00
2019-04-21T12:59:58.388Z,20.00
2019-04-21T13:01:03.208Z,20.00
2019-04-21T13:02:07.899Z,20.00
2019-04-21T13:03:14.165Z,20.10
2019-04-21T13:04:20.003Z,20.10
2019-04-21T13:05:25.423Z,20.00
2019-04-21T13:06:30.207Z,20.00
2019-04-21T13:07:35.482Z,20.00
2019-04-21T13:08:49.549Z,20.00
2019-04-21T13:09:48.427Z,20.00
2019-04-21T13:10:53.944Z,20.00
2019-04-21T13:11:59.495Z,20.00
2019-04-21T13:13:04.314Z,20.10
2019-04-21T13:14:09.002Z,20.10
2019-04-21T13:15:15.692Z,20.10
2019-04-21T13:16:21.196Z,20.20
2019-04-21T13:17:25.944Z,20.20
2019-04-21T13:18:31.239Z,20.20
2019-04-21T13:19:36.066Z,20.20
2019-04-21T13:20:42.256Z,20.20
2019-04-21T13:21:47.918Z,20.20
2019-04-21T13:22:52.662Z,20.30
2019-04-21T13:23:57.265Z,20.30
2019-04-21T13:25:02.721Z,20.30
2019-04-21T13:26:09.256Z,20.30
2019-04-21T13:27:15.568Z,20.30
2019-04-21T13:28:22.789Z,20.30
2019-04-21T13:29:28.168Z,20.30
2019-04-21T13:30:33.095Z,20.30
2019-04-21T13:31:38.437Z,20.30
2019-04-21T13:32:45.213Z,20.30
2019-04-21T13:33:50.523Z,20.30
2019-04-21T13:34:55.183Z,20.30
2019-04-21T13:35:59.809Z,20.30
2019-04-21T13:37:05.799Z,20.30
2019-04-21T13:38:19.893Z,20.30
2019-04-21T13:39:55.255Z,20.30
2019-04-21T13:41:14.889Z,20.30
2019-04-21T13:42:16.481Z,20.20
2019-04-21T13:43:12.504Z,20.20
2019-04-21T13:44:18.234Z,20.20
2019-04-21T13:45:25.928Z,20.20
2019-04-21T13:46:31.052Z,20.20
2019-04-21T13:47:36.522Z,20.20
2019-04-21T13:48:42.518Z,20.20
2019-04-21T13:49:47.678Z,20.20
2019-04-21T13:50:53.537Z,20.30
2019-04-21T13:51:58.255Z,20.30
2019-04-21T13:53:02.886Z,20.20
2019-04-21T13:54:09.534Z,20.20
2019-04-21T13:55:15.746Z,20.20
2019-04-21T13:56:20.888Z,20.10
2019-04-21T13:57:26.342Z,20.10
2019-04-21T13:58:32.493Z,20.10
2019-04-21T13:59:38.419Z,20.20
2019-04-21T14:00:43.324Z,20.20
2019-04-21T14:01:49.673Z,20.20
2019-04-21T14:02:54.639Z,20.20
2019-04-21T14:03:59.672Z,20.10
2019-04-21T14:05:08.521Z,20.20
2019-04-21T14:06:12.151Z,20.10
2019-04-21T14:07:26.055Z,20.20
2019-04-21T14:08:31.301Z,20.20
2019-04-21T14:09:45.817Z,20.20
2019-04-21T14:10:43.986Z,20.20
2019-04-21T14:11:52.543Z,20.20
2019-04-21T14:12:56.551Z,20.20
2019-04-21T14:14:02.563Z,20.30
2019-04-21T14:15:08.717Z,20.20
2019-04-21T14:16:14.041Z,20.30
2019-04-21T14:17:19.167Z,20.20
2019-04-21T14:18:24.722Z,20.20
2019-04-21T14:19:29.323Z,20.20
2019-04-21T14:20:35.174Z,20.20
2019-04-21T14:21:41.196Z,20.30
2019-04-21T14:22:46.441Z,20.40
2019-04-21T14:23:53.917Z,20.40
2019-04-21T14:24:57.723Z,20.40
2019-04-21T14:26:03.744Z,20.40
2019-04-21T14:27:10.086Z,20.40
2019-04-21T14:28:15.640Z,20.40
2019-04-21T14:29:21.746Z,20.40
2019-04-21T14:30:28.450Z,20.40
2019-04-21T14:31:34.520Z,20.40
2019-04-21T14:32:40.184Z,20.40
2019-04-21T14:33:45.924Z,20.30
2019-04-21T14:34:53.788Z,20.20
2019-04-21T14:35:57.133Z,20.20
2019-04-21T14:37:02.507Z,20.20
2019-04-21T14:38:08.934Z,20.20
2019-04-21T14:39:14.595Z,20.20
2019-04-21T14:40:23.694Z,20.20
2019-04-21T14:41:28.399Z,20.20
2019-04-21T14:42:34.017Z,20.20
2019-04-21T14:43:43.953Z,20.20
2019-04-21T14:44:49.125Z,20.20
2019-04-21T14:46:09.063Z,20.30
2019-04-21T14:47:31.904Z,20.30
2019-04-21T14:49:11.084Z,20.30
2019-04-21T14:50:44.352Z,20.30
2019-04-21T14:51:53.245Z,20.40
2019-04-21T14:53:38.006Z,20.40
2019-04-21T14:55:02.861Z,20.40
2019-04-21T14:56:08.830Z,20.40
2019-04-21T14:57:13.827Z,20.30
2019-04-21T14:58:19.133Z,20.30
2019-04-21T14:59:24.766Z,20.30
2019-04-21T15:00:34.411Z,20.30
2019-04-21T15:01:39.977Z,20.30
2019-04-21T15:02:45.535Z,20.20
2019-04-21T15:03:51.891Z,20.30
2019-04-21T15:04:57.804Z,20.30
2019-04-21T15:06:03.283Z,20.30
2019-04-21T15:07:09.685Z,20.30
2019-04-21T15:08:15.468Z,20.20
2019-04-21T15:09:20.997Z,20.20
2019-04-21T15:10:28.766Z,20.20
2019-04-21T15:11:32.123Z,20.20
2019-04-21T15:12:38.146Z,20.20
2019-04-21T15:13:43.948Z,20.20
2019-04-21T15:14:49.879Z,20.20
2019-04-21T15:15:56.141Z,20.20
2019-04-21T15:17:01.099Z,20.20
2019-04-21T15:18:05.850Z,20.20
2019-04-21T15:19:10.860Z,20.20
2019-04-21T15:20:17.795Z,20.30
2019-04-21T15:21:23.591Z,20.30
2019-04-21T15:22:28.481Z,20.30
2019-04-21T15:23:33.935Z,20.30
2019-04-21T15:24:38.733Z,20.30
2019-04-21T15:25:43.968Z,20.30
2019-04-21T15:26:51.554Z,20.30
2019-04-21T15:27:56.660Z,20.30
2019-04-21T15:29:02.715Z,20.30
2019-04-21T15:30:09.138Z,20.30
2019-04-21T15:31:20.436Z,20.30
2019-04-21T15:32:20.295Z,20.20
2019-04-21T15:33:26.456Z,20.20
2019-04-21T15:34:31.933Z,20.20
2019-04-21T15:35:37.357Z,20.20
2019-04-21T15:36:42.051Z,20.20
2019-04-21T15:37:46.797Z,20.10
2019-04-21T15:38:51.958Z,20.10
2019-04-21T15:39:56.864Z,20.10
2019-04-21T15:41:05.035Z,20.00
2019-04-21T15:42:08.527Z,20.00
2019-04-21T15:43:14.669Z,20.00
2019-04-21T15:44:20.722Z,20.00
2019-04-21T15:45:26.417Z,20.00
2019-04-21T15:46:35.210Z,20.00